createdAt,value
2022-11-07T00:01:48.043Z,51.67
2022-11-07T00:04:16.461Z,52.03
2022-11-07T00:06:44.136Z,55.00
2022-11-07T00:09:12.203Z,56.80
2022-11-07T00:11:39.971Z,60.20
2022-11-07T00:14:08.426Z,57.90
2022-11-07T00:16:36.298Z,57.58
2022-11-07T00:19:04.296Z,57.03
2022-11-07T00:21:32.062Z,56.13
2022-11-07T00:24:00.139Z,55.13
2022-11-07T00:26:28.016Z,53.30
2022-11-07T00:28:56.434Z,53.15
2022-11-07T00:31:24.151Z,54.03
2022-11-07T00:33:52.594Z,53.63
2022-11-07T00:36:23.651Z,52.65
2022-11-07T00:38:52.048Z,54.67
2022-11-07T00:41:20.044Z,53.80
2022-11-07T00:43:48.359Z,53.45
2022-11-07T00:46:17.089Z,53.75
2022-11-07T00:48:45.579Z,50.00
2022-11-07T00:51:18.801Z,50.63
2022-11-07T00:53:47.604Z,50.15
2022-11-07T00:56:18.904Z,47.40
2022-11-07T00:58:47.613Z,47.22
2022-11-07T01:01:17.989Z,47.55
2022-11-07T01:04:05.033Z,44.45
2022-11-07T01:06:35.629Z,47.15
2022-11-07T01:09:04.163Z,45.97
2022-11-07T01:11:31.956Z,47.92
2022-11-07T01:14:01.817Z,43.80
2022-11-07T01:16:30.849Z,43.25
2022-11-07T01:18:58.838Z,42.25
2022-11-07T01:21:26.473Z,41.83
2022-11-07T01:23:54.606Z,50.33
2022-11-07T01:26:22.319Z,50.10
2022-11-07T01:28:50.232Z,46.28
2022-11-07T01:31:19.217Z,44.00
2022-11-07T01:33:47.208Z,41.60
2022-11-07T01:36:17.707Z,40.40
2022-11-07T01:38:51.337Z,36.85
2022-11-07T01:41:25.793Z,41.35
2022-11-07T01:44:08.160Z,35.60
2022-11-07T01:46:47.743Z,31.95
2022-11-07T01:49:26.014Z,32.10
2022-11-07T01:52:06.013Z,34.58
2022-11-07T01:55:01.372Z,32.67
2022-11-07T01:57:45.185Z,32.00
2022-11-07T02:00:15.768Z,29.73
2022-11-07T02:02:46.841Z,32.05
2022-11-07T02:05:21.451Z,30.60
2022-11-07T02:07:49.376Z,31.13
2022-11-07T02:10:18.506Z,30.35
2022-11-07T02:12:46.637Z,29.92
2022-11-07T02:15:14.583Z,28.00
2022-11-07T02:17:42.322Z,28.58
2022-11-07T02:20:11.084Z,26.95
2022-11-07T02:22:49.336Z,28.83
2022-11-07T02:25:19.711Z,29.48
2022-11-07T02:27:51.452Z,32.05
2022-11-07T02:30:22.906Z,28.92
2022-11-07T02:32:50.597Z,34.03
2022-11-07T02:35:44.016Z,31.30
2022-11-07T02:38:32.662Z,28.98
2022-11-07T02:41:21.454Z,29.20
2022-11-07T02:44:06.476Z,28.67
2022-11-07T02:46:35.303Z,28.30
2022-11-07T02:49:02.984Z,25.52
2022-11-07T02:51:30.908Z,25.85
2022-11-07T02:53:58.662Z,27.95
2022-11-07T02:56:26.803Z,27.30
2022-11-07T02:58:54.509Z,27.83
2022-11-07T03:01:23.068Z,25.55
2022-11-07T03:03:51.614Z,26.23
2022-11-07T03:06:23.640Z,24.95
2022-11-07T03:08:51.745Z,24.38
2022-11-07T03:11:20.198Z,23.48
2022-11-07T03:13:49.633Z,22.38
2022-11-07T03:16:19.555Z,26.30
2022-11-07T03:18:47.356Z,24.60
2022-11-07T03:21:15.395Z,22.92
2022-11-07T03:23:43.049Z,22.90
2022-11-07T03:26:11.071Z,23.80
2022-11-07T03:28:38.732Z,22.77
2022-11-07T03:31:06.754Z,23.67
2022-11-07T03:33:34.368Z,23.73
2022-11-07T03:36:02.349Z,24.13
2022-11-07T03:38:30.347Z,25.42
2022-11-07T03:40:58.233Z,24.42
2022-11-07T03:43:26.001Z,25.45
2022-11-07T03:45:53.941Z,25.95
2022-11-07T03:48:21.610Z,26.42
2022-11-07T03:50:49.576Z,26.05
2022-11-07T03:53:22.171Z,26.80
2022-11-07T03:55:55.765Z,26.80
2022-11-07T03:58:25.072Z,27.27
2022-11-07T04:00:53.160Z,28.88
2022-11-07T04:03:20.773Z,27.50
2022-11-07T04:05:48.770Z,28.27
2022-11-07T04:08:16.804Z,27.48
2022-11-07T04:10:44.810Z,29.60
2022-11-07T04:13:31.292Z,28.95
2022-11-07T04:16:17.979Z,28.38
2022-11-07T04:18:45.721Z,29.10
2022-11-07T04:21:13.681Z,28.58
2022-11-07T04:23:41.335Z,32.25
2022-11-07T04:26:27.953Z,29.77
2022-11-07T04:28:55.647Z,29.30
2022-11-07T04:31:23.649Z,29.77
2022-11-07T04:33:52.001Z,29.90
2022-11-07T04:36:20.215Z,28.95
2022-11-07T04:38:47.895Z,30.02
2022-11-07T04:41:21.127Z,31.40
2022-11-07T04:43:49.031Z,30.17
2022-11-07T04:46:17.463Z,30.48
2022-11-07T04:48:45.383Z,30.00
2022-11-07T04:51:20.377Z,30.33
2022-11-07T04:53:48.031Z,31.10
2022-11-07T04:56:15.997Z,31.60
2022-11-07T04:58:43.616Z,30.88
2022-11-07T05:01:11.567Z,30.42
2022-11-07T05:03:42.081Z,32.38
2022-11-07T05:06:14.389Z,30.75
2022-11-07T05:08:42.108Z,30.88
2022-11-07T05:11:10.232Z,30.77
2022-11-07T05:13:37.936Z,32.00
2022-11-07T05:16:06.212Z,33.35
2022-11-07T05:18:33.896Z,35.22
2022-11-07T05:21:01.845Z,35.88
2022-11-07T05:23:29.455Z,40.28
2022-11-07T05:25:57.421Z,44.13
2022-11-07T05:28:38.247Z,43.35
2022-11-07T05:31:08.560Z,41.97
2022-11-07T05:33:36.398Z,34.75
2022-11-07T05:36:21.776Z,36.80
2022-11-07T05:38:51.723Z,35.28
2022-11-07T05:41:21.605Z,35.22
2022-11-07T05:43:49.491Z,35.15
2022-11-07T05:46:17.370Z,35.92
2022-11-07T05:48:44.995Z,38.05
2022-11-07T05:51:12.887Z,38.28
2022-11-07T05:53:40.675Z,36.55
2022-11-07T05:56:08.645Z,36.80
2022-11-07T05:58:36.485Z,34.63
2022-11-07T06:01:06.082Z,35.80
2022-11-07T06:03:34.273Z,35.30
2022-11-07T06:06:02.211Z,34.35
2022-11-07T06:08:29.858Z,32.35
2022-11-07T06:10:57.808Z,34.17
2022-11-07T06:13:25.470Z,35.92
2022-11-07T06:15:53.446Z,33.17
2022-11-07T06:18:22.324Z,34.72
2022-11-07T06:20:50.267Z,34.33
2022-11-07T06:23:18.524Z,34.97
2022-11-07T06:25:47.373Z,34.88
2022-11-07T06:28:16.022Z,36.25
2022-11-07T06:30:44.711Z,34.17
2022-11-07T06:33:15.913Z,34.95
2022-11-07T06:35:44.712Z,33.28
2022-11-07T06:38:14.002Z,34.38
2022-11-07T06:40:42.859Z,32.78
2022-11-07T06:43:20.694Z,34.80
2022-11-07T06:45:48.966Z,33.92
2022-11-07T06:48:16.822Z,32.47
2022-11-07T06:50:44.967Z,33.75
2022-11-07T06:53:14.654Z,33.35
2022-11-07T06:55:43.229Z,32.35
2022-11-07T06:58:11.100Z,31.20
2022-11-07T07:00:39.131Z,29.92
2022-11-07T07:03:07.055Z,30.85
2022-11-07T07:05:35.640Z,31.25
2022-11-07T07:08:05.028Z,31.40
2022-11-07T07:10:39.276Z,27.92
2022-11-07T07:13:07.152Z,30.98
2022-11-07T07:15:49.744Z,31.30
2022-11-07T07:18:19.505Z,29.90
2022-11-07T07:20:48.888Z,30.95
2022-11-07T07:23:21.516Z,29.45
2022-11-07T07:25:49.887Z,30.85
2022-11-07T07:28:17.838Z,32.30
2022-11-07T07:30:51.381Z,31.42
2022-11-07T07:33:19.928Z,30.95
2022-11-07T07:35:47.839Z,30.60
2022-11-07T07:38:15.781Z,30.40
2022-11-07T07:40:43.757Z,30.33
2022-11-07T07:43:11.730Z,31.45
2022-11-07T07:45:39.824Z,30.48
2022-11-07T07:48:07.644Z,29.48
2022-11-07T07:50:35.627Z,31.88
2022-11-07T07:53:08.646Z,30.70
2022-11-07T07:55:36.987Z,32.88
2022-11-07T07:58:04.635Z,30.73
2022-11-07T08:00:32.717Z,32.50
2022-11-07T08:03:09.666Z,31.05
2022-11-07T08:05:38.648Z,32.15
2022-11-07T08:08:08.339Z,32.17
2022-11-07T08:10:43.636Z,33.30
2022-11-07T08:13:11.419Z,32.10
2022-11-07T08:15:39.428Z,31.10
2022-11-07T08:18:07.427Z,31.67
2022-11-07T08:20:35.343Z,31.70
2022-11-07T08:23:09.830Z,32.20
2022-11-07T08:25:41.228Z,33.40
2022-11-07T08:28:09.123Z,31.67
2022-11-07T08:30:37.079Z,31.88
2022-11-07T08:33:05.022Z,30.17
2022-11-07T08:35:36.884Z,31.73
2022-11-07T08:38:07.311Z,31.08
2022-11-07T08:40:35.200Z,29.17
2022-11-07T08:43:02.884Z,28.60
2022-11-07T08:45:30.763Z,28.42
2022-11-07T08:47:59.849Z,28.40
2022-11-07T08:50:28.199Z,27.55
2022-11-07T08:53:01.223Z,28.27
2022-11-07T08:55:30.786Z,25.85
2022-11-07T08:58:03.505Z,25.15
2022-11-07T09:00:32.356Z,26.13
2022-11-07T09:05:58.521Z,24.48
2022-11-07T09:08:26.407Z,23.45
2022-11-07T09:10:54.414Z,23.58
2022-11-07T09:13:22.073Z,22.85
2022-11-07T09:15:51.867Z,22.77
2022-11-07T09:18:20.335Z,22.80
2022-11-07T09:20:48.246Z,21.15
2022-11-07T09:23:16.296Z,22.92
2022-11-07T09:25:44.883Z,21.42
2022-11-07T09:28:13.346Z,21.83
2022-11-07T09:30:41.644Z,21.73
2022-11-07T09:33:09.563Z,21.30
2022-11-07T09:35:37.544Z,21.63
2022-11-07T09:38:05.808Z,20.15
2022-11-07T09:40:47.683Z,20.77
2022-11-07T09:43:30.704Z,19.55
2022-11-07T09:46:16.884Z,18.95
2022-11-07T09:49:05.956Z,19.63
2022-11-07T09:51:38.220Z,19.70
2022-11-07T09:54:13.845Z,20.15
2022-11-07T09:56:43.733Z,20.20
2022-11-07T09:59:24.794Z,18.85
2022-11-07T10:01:52.933Z,18.98
2022-11-07T10:04:26.249Z,19.50
2022-11-07T10:07:27.996Z,19.60
2022-11-07T10:10:06.458Z,17.50
2022-11-07T10:12:44.590Z,19.85
2022-11-07T10:15:19.235Z,19.33
2022-11-07T10:18:37.443Z,19.60
2022-11-07T10:21:42.022Z,19.13
2022-11-07T10:26:45.630Z,18.55
2022-11-07T10:29:19.438Z,18.38
2022-11-07T10:31:57.118Z,19.58
2022-11-07T10:34:27.956Z,19.98
2022-11-07T10:36:55.712Z,19.20
2022-11-07T10:39:23.662Z,19.40
2022-11-07T10:42:04.579Z,18.75
2022-11-07T10:44:33.875Z,19.58
2022-11-07T10:47:03.708Z,19.00
2022-11-07T10:49:33.074Z,18.92
2022-11-07T10:52:16.924Z,17.65
2022-11-07T10:54:45.230Z,18.83
2022-11-07T10:57:19.013Z,18.10
2022-11-07T11:02:32.384Z,18.08
2022-11-07T11:05:02.672Z,19.15
2022-11-07T11:07:38.855Z,17.05
2022-11-07T11:10:23.697Z,16.80
2022-11-07T11:12:52.012Z,16.70
2022-11-07T11:15:28.898Z,18.15
2022-11-07T11:18:14.984Z,15.77
2022-11-07T11:21:06.823Z,17.38
2022-11-07T11:23:42.203Z,17.38
2022-11-07T11:26:17.295Z,16.55
2022-11-07T11:28:50.073Z,15.23
2022-11-07T11:31:44.130Z,16.13
2022-11-07T11:34:15.753Z,16.03
2022-11-07T11:37:00.688Z,15.43
2022-11-07T11:39:47.989Z,15.02
2022-11-07T11:42:42.255Z,13.68
2022-11-07T11:45:46.071Z,13.48
2022-11-07T11:48:30.135Z,13.70
2022-11-07T11:51:06.438Z,14.40
2022-11-07T11:53:34.462Z,13.25
2022-11-07T11:56:07.908Z,14.15
2022-11-07T11:58:58.664Z,13.57
2022-11-07T12:01:53.845Z,13.27
2022-11-07T12:04:28.843Z,14.02
2022-11-07T12:07:25.582Z,13.43
2022-11-07T12:10:41.054Z,13.45
2022-11-07T12:13:34.593Z,12.95
2022-11-07T12:16:21.254Z,11.77
2022-11-07T12:19:28.588Z,12.50
2022-11-07T12:22:11.008Z,15.57
2022-11-07T12:24:45.747Z,10.73
2022-11-07T12:27:32.749Z,11.23
2022-11-07T12:30:24.473Z,11.02
2022-11-07T12:33:14.474Z,11.35
2022-11-07T12:36:00.332Z,10.63
2022-11-07T12:38:54.532Z,13.10
2022-11-07T12:41:57.643Z,16.83
2022-11-07T12:45:01.996Z,10.90
2022-11-07T12:47:32.640Z,11.47
2022-11-07T12:50:19.963Z,9.75
2022-11-07T12:53:00.602Z,9.60
2022-11-07T12:55:52.228Z,9.20
2022-11-07T12:58:28.387Z,9.68
2022-11-07T13:00:57.315Z,9.38
2022-11-07T13:03:31.463Z,11.18
2022-11-07T13:06:18.567Z,12.43
2022-11-07T13:09:03.647Z,20.38
2022-11-07T13:12:13.328Z,18.20
2022-11-07T13:14:42.644Z,10.27
2022-11-07T13:17:27.708Z,12.05
2022-11-07T13:20:30.795Z,8.80
2022-11-07T13:23:00.855Z,9.32
2022-11-07T13:25:33.280Z,9.30
2022-11-07T13:28:23.611Z,9.40
2022-11-07T13:31:02.424Z,9.70
2022-11-07T13:33:36.257Z,10.85
2022-11-07T13:36:23.895Z,9.10
2022-11-07T13:38:56.827Z,9.27
2022-11-07T13:41:25.039Z,9.70
2022-11-07T13:44:02.062Z,9.77
2022-11-07T13:46:42.959Z,8.95
2022-11-07T13:49:27.187Z,9.50
2022-11-07T13:52:00.577Z,9.43
2022-11-07T13:54:55.042Z,9.25
2022-11-07T13:57:37.698Z,9.18
2022-11-07T14:00:14.438Z,9.07
2022-11-07T14:02:54.173Z,9.57
2022-11-07T14:05:25.167Z,9.50
2022-11-07T14:07:59.691Z,9.20
2022-11-07T14:10:34.220Z,8.75
2022-11-07T14:15:30.649Z,8.43
2022-11-07T14:17:58.591Z,9.38
2022-11-07T14:20:26.799Z,9.43
2022-11-07T14:22:57.402Z,8.80
2022-11-07T14:25:32.445Z,9.57
2022-11-07T14:28:01.253Z,9.30
2022-11-07T14:30:31.846Z,9.52
2022-11-07T14:33:02.271Z,9.38
2022-11-07T14:35:35.191Z,9.43
2022-11-07T14:38:17.069Z,9.63
2022-11-07T14:40:46.668Z,9.88
2022-11-07T14:43:17.834Z,9.23
2022-11-07T14:46:11.427Z,9.30
2022-11-07T14:48:35.506Z,10.20
2022-11-07T14:51:05.428Z,10.85
2022-11-07T14:54:01.889Z,10.98
2022-11-07T14:56:34.482Z,11.15
2022-11-07T14:59:02.356Z,10.43
2022-11-07T15:01:33.267Z,11.40
2022-11-07T15:04:15.381Z,10.77
2022-11-07T15:06:45.116Z,10.70
2022-11-07T15:09:12.752Z,10.52
2022-11-07T15:11:43.962Z,10.35
2022-11-07T15:14:32.567Z,10.88
2022-11-07T15:17:04.157Z,11.45
2022-11-07T15:19:34.579Z,9.70
2022-11-07T15:22:04.520Z,10.65
2022-11-07T15:24:46.284Z,10.00
2022-11-07T15:27:14.127Z,11.40
2022-11-07T15:29:54.768Z,11.23
2022-11-07T15:32:34.949Z,10.85
2022-11-07T15:35:42.016Z,10.85
2022-11-07T15:38:02.331Z,10.77
2022-11-07T15:40:30.423Z,12.10
2022-11-07T15:42:58.365Z,10.55
2022-11-07T15:45:26.107Z,11.82
2022-11-07T15:47:54.165Z,10.75
2022-11-07T15:50:25.940Z,11.35
2022-11-07T15:52:54.526Z,10.82
2022-11-07T15:55:23.806Z,10.15
2022-11-07T15:57:54.044Z,9.60
2022-11-07T16:00:24.679Z,10.10
2022-11-07T16:02:53.171Z,10.00
2022-11-07T16:05:21.036Z,9.63
2022-11-07T16:07:49.402Z,10.02
2022-11-07T16:10:19.489Z,10.00
2022-11-07T16:12:48.455Z,10.18
2022-11-07T16:15:18.332Z,10.02
2022-11-07T16:17:46.582Z,9.98
2022-11-07T16:20:22.665Z,11.13
2022-11-07T16:22:51.528Z,10.35
2022-11-07T16:25:23.278Z,10.68
2022-11-07T16:27:53.867Z,10.82
2022-11-07T16:30:22.329Z,11.32
2022-11-07T16:32:50.382Z,10.63
2022-11-07T16:35:18.259Z,10.30
2022-11-07T16:37:46.167Z,10.05
2022-11-07T16:40:19.537Z,10.35
2022-11-07T16:42:47.674Z,10.40
2022-11-07T16:45:19.153Z,10.15
2022-11-07T16:47:48.264Z,10.02
2022-11-07T16:50:17.044Z,10.35
2022-11-07T16:52:45.181Z,10.32
2022-11-07T16:55:17.684Z,10.48
2022-11-07T16:57:46.133Z,10.38
2022-11-07T17:00:17.107Z,11.07
2022-11-07T17:02:45.439Z,11.43
2022-11-07T17:05:13.416Z,10.90
2022-11-07T17:07:41.453Z,9.90
2022-11-07T17:10:15.756Z,10.13
2022-11-07T17:12:43.858Z,9.77
2022-11-07T17:15:11.960Z,10.13
2022-11-07T17:17:40.298Z,9.70
2022-11-07T17:20:34.200Z,9.55
2022-11-07T17:23:06.819Z,10.90
2022-11-07T17:25:35.858Z,9.90
2022-11-07T17:28:04.039Z,10.85
2022-11-07T17:30:33.566Z,10.13
2022-11-07T17:33:03.547Z,10.63
2022-11-07T17:35:32.991Z,10.38
2022-11-07T17:38:01.140Z,10.57
2022-11-07T17:40:31.300Z,11.38
2022-11-07T17:43:00.049Z,10.48
2022-11-07T17:45:28.556Z,11.05
2022-11-07T17:47:56.607Z,10.48
2022-11-07T17:50:24.402Z,11.32
2022-11-07T17:52:52.508Z,10.55
2022-11-07T17:55:21.185Z,10.25
2022-11-07T17:57:49.226Z,10.55
2022-11-07T18:00:20.340Z,11.73
2022-11-07T18:02:50.723Z,11.23
2022-11-07T18:05:20.551Z,12.00
2022-11-07T18:07:48.531Z,11.90
2022-11-07T18:10:16.698Z,11.38
2022-11-07T18:12:45.106Z,11.73
2022-11-07T18:15:13.081Z,11.68
2022-11-07T18:17:41.628Z,12.10
2022-11-07T18:20:10.905Z,11.57
2022-11-07T18:22:39.187Z,12.05
2022-11-07T18:25:08.335Z,12.43
2022-11-07T18:27:36.785Z,12.38
2022-11-07T18:30:07.652Z,12.55
2022-11-07T18:32:37.312Z,12.68
2022-11-07T18:35:06.121Z,11.60
2022-11-07T18:37:34.470Z,13.30
2022-11-07T18:40:02.174Z,14.63
2022-11-07T18:42:31.048Z,14.25
2022-11-07T18:44:58.694Z,13.18
2022-11-07T18:47:26.781Z,12.57
2022-11-07T18:49:57.340Z,12.40
2022-11-07T18:52:25.888Z,12.65
2022-11-07T18:54:54.222Z,12.75
2022-11-07T18:57:22.251Z,12.50
2022-11-07T18:59:49.976Z,12.52
2022-11-07T19:02:18.042Z,12.25
2022-11-07T19:04:45.840Z,12.10
2022-11-07T19:07:13.799Z,13.70
2022-11-07T19:09:41.504Z,12.77
2022-11-07T19:12:09.408Z,13.38
2022-11-07T19:14:37.383Z,13.30
2022-11-07T19:17:05.299Z,14.70
2022-11-07T19:19:33.684Z,14.30
2022-11-07T19:22:01.756Z,14.23
2022-11-07T19:24:29.385Z,14.18
2022-11-07T19:26:57.539Z,14.27
2022-11-07T19:29:26.015Z,13.77
2022-11-07T19:31:54.034Z,13.20
2022-11-07T19:34:21.765Z,13.88
2022-11-07T19:36:49.843Z,13.60
2022-11-07T19:39:17.653Z,14.02
2022-11-07T19:41:45.693Z,14.90
2022-11-07T19:44:13.433Z,14.48
2022-11-07T19:46:41.431Z,14.05
2022-11-07T19:49:09.466Z,14.30
2022-11-07T19:51:37.761Z,15.18
2022-11-07T19:54:07.547Z,14.90
2022-11-07T19:56:35.575Z,15.25
2022-11-07T19:59:03.274Z,14.02
2022-11-07T20:01:34.044Z,15.18
2022-11-07T20:04:02.978Z,14.45
2022-11-07T20:06:35.656Z,14.32
2022-11-07T20:09:06.620Z,15.20
2022-11-07T20:11:34.860Z,15.57
2022-11-07T20:14:03.921Z,14.38
2022-11-07T20:16:33.801Z,14.30
2022-11-07T20:19:02.157Z,13.18
2022-11-07T20:21:31.142Z,14.25
2022-11-07T20:24:00.127Z,13.18
2022-11-07T20:26:30.154Z,13.75
2022-11-07T20:28:58.598Z,13.52
2022-11-07T20:31:29.560Z,13.55
2022-11-07T20:34:05.769Z,12.52
2022-11-07T20:36:34.461Z,13.55
2022-11-07T20:39:03.093Z,14.38
2022-11-07T20:41:31.141Z,13.70
2022-11-07T20:44:04.227Z,14.35
2022-11-07T20:46:35.313Z,13.70
2022-11-07T20:49:04.831Z,14.57
2022-11-07T20:51:33.275Z,14.48
2022-11-07T20:54:01.243Z,14.68
2022-11-07T20:56:29.999Z,14.00
2022-11-07T20:58:58.420Z,14.77
2022-11-07T21:01:36.093Z,14.45
2022-11-07T21:04:09.540Z,14.25
2022-11-07T21:06:37.577Z,14.60
2022-11-07T21:09:05.383Z,14.65
2022-11-07T21:11:34.050Z,14.93
2022-11-07T21:14:01.710Z,14.60
2022-11-07T21:16:30.028Z,15.55
2022-11-07T21:18:57.732Z,15.48
2022-11-07T21:21:27.807Z,16.45
2022-11-07T21:23:57.683Z,16.33
2022-11-07T21:26:30.228Z,17.15
2022-11-07T21:28:58.552Z,17.10
2022-11-07T21:31:30.237Z,17.30
2022-11-07T21:33:58.537Z,17.10
2022-11-07T21:36:30.824Z,18.52
2022-11-07T21:38:59.967Z,17.55
2022-11-07T21:41:29.550Z,17.85
2022-11-07T21:43:58.516Z,18.33
2022-11-07T21:46:29.223Z,17.27
2022-11-07T21:48:57.871Z,17.83
2022-11-07T21:51:28.401Z,17.42
2022-11-07T21:53:57.276Z,17.35
2022-11-07T21:56:28.184Z,16.35
2022-11-07T21:58:59.319Z,16.35
2022-11-07T22:01:28.606Z,16.90
2022-11-07T22:04:06.588Z,16.70
2022-11-07T22:06:42.031Z,15.80
2022-11-07T22:09:12.923Z,17.23
2022-11-07T22:11:40.952Z,17.17
2022-11-07T22:14:09.284Z,16.80
2022-11-07T22:16:37.744Z,16.50
2022-11-07T22:19:11.203Z,16.65
2022-11-07T22:21:41.327Z,16.23
2022-11-07T22:24:10.019Z,16.15
2022-11-07T22:26:38.007Z,17.05
2022-11-07T22:29:05.800Z,16.45
2022-11-07T22:31:34.002Z,16.75
2022-11-07T22:34:02.365Z,15.85
2022-11-07T22:36:30.555Z,17.13
2022-11-07T22:38:59.032Z,17.17
2022-11-07T22:41:27.949Z,15.50
2022-11-07T22:43:56.879Z,16.05
2022-11-07T22:46:28.210Z,15.82
2022-11-07T22:48:57.367Z,15.85
2022-11-07T22:51:28.516Z,16.48
2022-11-07T22:53:57.203Z,17.05
2022-11-07T22:56:25.369Z,17.10
2022-11-07T22:58:53.382Z,16.70
2022-11-07T23:01:29.897Z,17.02
2022-11-07T23:03:58.925Z,17.13
2022-11-07T23:06:29.093Z,17.17
2022-11-07T23:08:58.095Z,17.77
2022-11-07T23:11:48.603Z,17.58
2022-11-07T23:14:19.575Z,17.73
2022-11-07T23:16:50.933Z,18.33
2022-11-07T23:19:22.554Z,18.17
2022-11-07T23:21:52.332Z,17.98
2022-11-07T23:24:20.948Z,18.80
2022-11-07T23:26:49.388Z,18.83
2022-11-07T23:29:20.341Z,18.25
2022-11-07T23:31:49.815Z,18.40
2022-11-07T23:34:18.791Z,17.77
2022-11-07T23:36:49.481Z,18.05
2022-11-07T23:39:19.467Z,18.83
2022-11-07T23:41:47.959Z,19.10
2022-11-07T23:44:16.154Z,16.90
2022-11-07T23:47:03.722Z,17.92
2022-11-07T23:49:50.234Z,18.35
2022-11-07T23:52:18.806Z,17.70
2022-11-07T23:55:05.024Z,18.70
2022-11-07T23:57:57.060Z,17.63
